Aérodrome :
LOGIN :

S'inscrire | Disclaimer

   EN    FR    IT 

 










Légende :    VFR   VFR Marginal   IFR   IFR Intensif   IFR Très Intensif
Visi : 
Plafond : 
>= 8 km
>= 3000ft
5 à 8 km
1000 à 3000 ft
1500m à 5 km
500 à 1000 ft
800 à 1500m
200 à 500 ft
< 800m
< 200 ft
Symboles :   Orages  Brouillard  Fortes neiges  Fortes précipitations  Vent > 20 kt
SIGMETs :   Divers  Orages  Givrage  Turbulence  Onde Orograph.  Cendres Volcan.






- Altitude de l'aérodrome : 18 ft
- Code IATA : AJA


LFKJ - Ajaccio

DERNIER METAR :
  • 201030Z AUTO 26006KT CAVOK 15/08 Q1024 NOSIG

METARs EXPIRÉS :
  • 201000Z AUTO 27004KT 230V290 CAVOK 15/06 Q1024 NOSIG
  • 200930Z AUTO VRB03KT CAVOK 15/05 Q1024 NOSIG
  • 200900Z AUTO VRB03KT CAVOK 13/04 Q1024 NOSIG
  • 200830Z AUTO 05005KT CAVOK 11/05 Q1024 NOSIG

TAF TAF LFKJ
Valide du 20 à 09h jusqu'au 21 à 09h UTC


200800Z 2009/2109 24008KT CAVOK
BECMG 2018/2021 05004KT
ATIS : +33 4 95 23 59 85



MET'MAP, la Météo Aéronautique d'un coup d'oeil ! - Copyright ORBIFLY Décembre 2007 - Disclaimer

ORBIFLY MET'MAP TEAM :

Programmation & Développement : Alexandra Zaïnal
Sur une idée originale de : Baudouin d'Aumeries
Assistance à la programmation : Marc-Olivier Méhu
Soutien technique & logistique : Manuel Goepfert

Contact : metmap@orbifly.com




SOURCES & CREDITS :

   NOAA